sensor_id;sensor_type;location;lat;lon;timestamp;pressure;altitude;pressure_sealevel;temperature;humidity
12991;BME280;6560;57.692;11.958;2023-01-15T00:02:14;97857.97;;;18.31;100.00
12991;BME280;6560;57.692;11.958;2023-01-15T00:04:42;97825.91;;;18.65;100.00
12991;BME280;6560;57.692;11.958;2023-01-15T00:07:07;97926.16;;;19.42;100.00
12991;BME280;6560;57.692;11.958;2023-01-15T00:09:33;97910.94;;;19.61;100.00
12991;BME280;6560;57.692;11.958;2023-01-15T00:11:58;97818.88;;;18.27;100.00
12991;BME280;6560;57.692;11.958;2023-01-15T00:14:25;97888.06;;;20.39;100.00
12991;BME280;6560;57.692;11.958;2023-01-15T00:16:51;97901.25;;;20.60;100.00
12991;BME280;6560;57.692;11.958;2023-01-15T00:19:17;97921.94;;;18.86;100.00
12991;BME280;6560;57.692;11.958;2023-01-15T00:21:42;97884.50;;;19.01;100.00
12991;BME280;6560;57.692;11.958;2023-01-15T00:24:08;97884.34;;;19.33;100.00
12991;BME280;6560;57.692;11.958;2023-01-15T00:26:55;97896.56;;;19.81;100.00
12991;BME280;6560;57.692;11.958;2023-01-15T00:29:38;97853.97;;;19.49;100.00
12991;BME280;6560;57.692;11.958;2023-01-15T00:32:12;97882.31;;;19.79;100.00
12991;BME280;6560;57.692;11.958;2023-01-15T00:34:41;97847.09;;;20.34;100.00
12991;BME280;6560;57.692;11.958;2023-01-15T00:37:09;97835.28;;;19.51;100.00
12991;BME280;6560;57.692;11.958;2023-01-15T00:39:42;97771.81;;;19.79;100.00
12991;BME280;6560;57.692;11.958;2023-01-15T00:42:17;97880.47;;;20.82;100.00
12991;BME280;6560;57.692;11.958;2023-01-15T00:44:42;97853.94;;;19.60;100.00
12991;BME280;6560;57.692;11.958;2023-01-15T00:47:09;97852.72;;;20.01;100.00
12991;BME280;6560;57.692;11.958;2023-01-15T00:49:39;97897.03;;;20.29;100.00
12991;BME280;6560;57.692;11.958;2023-01-15T00:52:05;97903.06;;;19.32;100.00
12991;BME280;6560;57.692;11.958;2023-01-15T00:54:30;97918.16;;;19.37;100.00
12991;BME280;6560;57.692;11.958;2023-01-15T00:56:57;97917.31;;;19.25;100.00
12991;BME280;6560;57.692;11.958;2023-01-15T00:59:23;97932.56;;;19.01;100.00
12991;BME280;6560;57.692;11.958;2023-01-15T01:01:48;97935.25;;;18.92;100.00
12991;BME280;6560;57.692;11.958;2023-01-15T01:04:14;97892.63;;;18.51;100.00
12991;BME280;6560;57.692;11.958;2023-01-15T01:06:40;97924.56;;;18.98;100.00
12991;BME280;6560;57.692;11.958;2023-01-15T01:09:06;97936.19;;;18.52;100.00
12991;BME280;6560;57.692;11.958;2023-01-15T01:11:31;97921.13;;;18.57;100.00
12991;BME280;6560;57.692;11.958;2023-01-15T01:13:59;97946.91;;;18.09;100.00
12991;BME280;6560;57.692;11.958;2023-01-15T01:16:31;97941.53;;;18.79;100.00
12991;BME280;6560;57.692;11.958;2023-01-15T01:19:01;97884.66;;;18.50;100.00
12991;BME280;6560;57.692;11.958;2023-01-15T01:21:28;97938.88;;;18.41;100.00
12991;BME280;6560;57.692;11.958;2023-01-15T01:23:57;97920.22;;;18.21;100.00
12991;BME280;6560;57.692;11.958;2023-01-15T01:26:22;97934.44;;;17.93;100.00
12991;BME280;6560;57.692;11.958;2023-01-15T01:28:52;97941.56;;;18.09;100.00
12991;BME280;6560;57.692;11.958;2023-01-15T01:31:19;97954.91;;;18.59;100.00
12991;BME280;6560;57.692;11.958;2023-01-15T01:33:50;97953.09;;;18.78;100.00
12991;BME280;6560;57.692;11.958;2023-01-15T01:36:16;97952.25;;;18.44;100.00
12991;BME280;6560;57.692;11.958;2023-01-15T01:38:42;97938.00;;;18.65;100.00
12991;BME280;6560;57.692;11.958;2023-01-15T01:41:07;97952.13;;;19.05;100.00
12991;BME280;6560;57.692;11.958;2023-01-15T01:44:05;97953.00;;;19.04;100.00
12991;BME280;6560;57.692;11.958;2023-01-15T01:46:33;97919.34;;;18.57;100.00
12991;BME280;6560;57.692;11.958;2023-01-15T01:49:19;97947.75;;;18.89;100.00
12991;BME280;6560;57.692;11.958;2023-01-15T01:51:49;97949.44;;;19.16;100.00
12991;BME280;6560;57.692;11.958;2023-01-15T01:54:18;97948.66;;;18.65;100.00
12991;BME280;6560;57.692;11.958;2023-01-15T01:56:47;97942.19;;;19.39;100.00
12991;BME280;6560;57.692;11.958;2023-01-15T01:59:15;97942.38;;;18.95;100.00
12991;BME280;6560;57.692;11.958;2023-01-15T02:01:41;97929.94;;;18.85;100.00
12991;BME280;6560;57.692;11.958;2023-01-15T02:04:08;97945.13;;;18.28;100.00
12991;BME280;6560;57.692;11.958;2023-01-15T02:06:36;97950.47;;;18.23;100.00
12991;BME280;6560;57.692;11.958;2023-01-15T02:09:03;97958.44;;;18.75;100.00
12991;BME280;6560;57.692;11.958;2023-01-15T02:11:29;97960.19;;;18.87;100.00
12991;BME280;6560;57.692;11.958;2023-01-15T02:16:54;97961.13;;;18.70;100.00
12991;BME280;6560;57.692;11.958;2023-01-15T02:19:50;97929.91;;;19.00;100.00
12991;BME280;6560;57.692;11.958;2023-01-15T02:28:00;97953.97;;;18.51;100.00
12991;BME280;6560;57.692;11.958;2023-01-15T02:30:32;97901.59;;;18.09;100.00
12991;BME280;6560;57.692;11.958;2023-01-15T02:33:03;97957.38;;;17.35;100.00
12991;BME280;6560;57.692;11.958;2023-01-15T02:35:55;97927.13;;;17.11;100.00
12991;BME280;6560;57.692;11.958;2023-01-15T02:38:35;97902.88;;;16.58;100.00
12991;BME280;6560;57.692;11.958;2023-01-15T02:41:04;97959.97;;;17.18;100.00
12991;BME280;6560;57.692;11.958;2023-01-15T02:43:34;97966.78;;;16.64;100.00
12991;BME280;6560;57.692;11.958;2023-01-15T02:46:03;97852.88;;;16.03;100.00
12991;BME280;6560;57.692;11.958;2023-01-15T02:48:31;97955.13;;;16.55;100.00
12991;BME280;6560;57.692;11.958;2023-01-15T02:51:06;97962.34;;;16.68;100.00
12991;BME280;6560;57.692;11.958;2023-01-15T02:53:37;97958.50;;;15.39;100.00
12991;BME280;6560;57.692;11.958;2023-01-15T02:56:10;97950.47;;;16.22;100.00
12991;BME280;6560;57.692;11.958;2023-01-15T02:58:39;97957.50;;;17.62;100.00
12991;BME280;6560;57.692;11.958;2023-01-15T03:01:15;97930.84;;;18.88;100.00
12991;BME280;6560;57.692;11.958;2023-01-15T03:03:46;97960.25;;;18.70;100.00
12991;BME280;6560;57.692;11.958;2023-01-15T03:08:42;97954.91;;;18.67;100.00
12991;BME280;6560;57.692;11.958;2023-01-15T03:11:13;97946.00;;;18.39;100.00
12991;BME280;6560;57.692;11.958;2023-01-15T03:14:18;97946.91;;;18.14;100.00
12991;BME280;6560;57.692;11.958;2023-01-15T03:16:45;97914.00;;;17.71;100.00
12991;BME280;6560;57.692;11.958;2023-01-15T03:22:25;97898.00;;;18.42;100.00
12991;BME280;6560;57.692;11.958;2023-01-15T03:27:30;97935.31;;;18.83;100.00
12991;BME280;6560;57.692;11.958;2023-01-15T03:30:18;97925.53;;;18.65;100.00
12991;BME280;6560;57.692;11.958;2023-01-15T03:32:46;97914.63;;;19.31;100.00
12991;BME280;6560;57.692;11.958;2023-01-15T03:38:12;97901.03;;;19.76;100.00
12991;BME280;6560;57.692;11.958;2023-01-15T03:43:29;97942.41;;;18.81;100.00
12991;BME280;6560;57.692;11.958;2023-01-15T03:51:47;97877.56;;;17.64;100.00
12991;BME280;6560;57.692;11.958;2023-01-15T03:54:24;97946.75;;;19.20;100.00
12991;BME280;6560;57.692;11.958;2023-01-15T03:56:59;97924.19;;;19.82;100.00
12991;BME280;6560;57.692;11.958;2023-01-15T03:59:35;97917.22;;;19.43;100.00
12991;BME280;6560;57.692;11.958;2023-01-15T04:02:07;97932.38;;;19.52;100.00
12991;BME280;6560;57.692;11.958;2023-01-15T04:04:35;97821.38;;;18.87;100.00
12991;BME280;6560;57.692;11.958;2023-01-15T04:07:02;97783.28;;;18.57;100.00
12991;BME280;6560;57.692;11.958;2023-01-15T04:09:28;97917.25;;;19.41;100.00
12991;BME280;6560;57.692;11.958;2023-01-15T04:11:58;97837.19;;;19.28;100.00
12991;BME280;6560;57.692;11.958;2023-01-15T04:14:24;97926.72;;;19.99;100.00
12991;BME280;6560;57.692;11.958;2023-01-15T04:16:51;97921.59;;;19.64;100.00
12991;BME280;6560;57.692;11.958;2023-01-15T04:19:18;97914.59;;;19.40;100.00
12991;BME280;6560;57.692;11.958;2023-01-15T04:21:43;97913.81;;;19.14;100.00
12991;BME280;6560;57.692;11.958;2023-01-15T04:24:09;97932.41;;;19.47;100.00
12991;BME280;6560;57.692;11.958;2023-01-15T04:26:34;97928.75;;;19.57;100.00
12991;BME280;6560;57.692;11.958;2023-01-15T04:29:00;97907.22;;;19.87;100.00
12991;BME280;6560;57.692;11.958;2023-01-15T04:31:25;97895.88;;;19.38;100.00
12991;BME280;6560;57.692;11.958;2023-01-15T04:33:52;97916.34;;;19.52;100.00
12991;BME280;6560;57.692;11.958;2023-01-15T04:36:17;97894.28;;;19.08;100.00
12991;BME280;6560;57.692;11.958;2023-01-15T04:38:49;97915.59;;;19.11;100.00
12991;BME280;6560;57.692;11.958;2023-01-15T04:41:14;97902.16;;;19.30;100.00
12991;BME280;6560;57.692;11.958;2023-01-15T04:43:58;97912.91;;;19.21;100.00
12991;BME280;6560;57.692;11.958;2023-01-15T04:46:41;97901.19;;;19.43;100.00
12991;BME280;6560;57.692;11.958;2023-01-15T04:49:12;97908.19;;;19.71;100.00
12991;BME280;6560;57.692;11.958;2023-01-15T04:51:38;97890.59;;;19.34;100.00
12991;BME280;6560;57.692;11.958;2023-01-15T04:54:05;97897.50;;;19.74;100.00
12991;BME280;6560;57.692;11.958;2023-01-15T04:56:35;97895.75;;;19.64;100.00
12991;BME280;6560;57.692;11.958;2023-01-15T04:59:01;97901.81;;;19.94;100.00
12991;BME280;6560;57.692;11.958;2023-01-15T05:01:27;97819.75;;;18.43;100.00
12991;BME280;6560;57.692;11.958;2023-01-15T05:03:52;97903.06;;;19.32;100.00
12991;BME280;6560;57.692;11.958;2023-01-15T05:06:18;97906.50;;;19.58;100.00
12991;BME280;6560;57.692;11.958;2023-01-15T05:08:44;97891.22;;;19.77;100.00
12991;BME280;6560;57.692;11.958;2023-01-15T05:11:10;97787.81;;;17.99;100.00
12991;BME280;6560;57.692;11.958;2023-01-15T05:13:35;97781.63;;;17.88;100.00
12991;BME280;6560;57.692;11.958;2023-01-15T05:16:15;97894.44;;;18.32;100.00
12991;BME280;6560;57.692;11.958;2023-01-15T05:18:42;97894.44;;;18.34;100.00
12991;BME280;6560;57.692;11.958;2023-01-15T05:21:24;97874.84;;;17.59;100.00
12991;BME280;6560;57.692;11.958;2023-01-15T05:23:52;97858.88;;;18.56;100.00
12991;BME280;6560;57.692;11.958;2023-01-15T05:26:19;97844.72;;;17.65;100.00
12991;BME280;6560;57.692;11.958;2023-01-15T05:28:45;97816.22;;;17.27;100.00
12991;BME280;6560;57.692;11.958;2023-01-15T05:31:16;97879.31;;;17.59;100.00
12991;BME280;6560;57.692;11.958;2023-01-15T05:33:42;97856.97;;;16.96;100.00
12991;BME280;6560;57.692;11.958;2023-01-15T05:36:10;97862.38;;;17.29;100.00
12991;BME280;6560;57.692;11.958;2023-01-15T05:38:37;97891.53;;;16.90;100.00
12991;BME280;6560;57.692;11.958;2023-01-15T05:41:04;97862.34;;;17.11;100.00
12991;BME280;6560;57.692;11.958;2023-01-15T05:43:53;97819.66;;;16.79;100.00
12991;BME280;6560;57.692;11.958;2023-01-15T05:46:19;97894.22;;;19.18;100.00
12991;BME280;6560;57.692;11.958;2023-01-15T05:48:45;97874.84;;;18.47;100.00
12991;BME280;6560;57.692;11.958;2023-01-15T05:51:11;97825.06;;;18.39;100.00
12991;BME280;6560;57.692;11.958;2023-01-15T05:53:36;97877.34;;;16.86;100.00
12991;BME280;6560;57.692;11.958;2023-01-15T05:56:02;97892.56;;;17.33;100.00
12991;BME280;6560;57.692;11.958;2023-01-15T05:58:28;97863.34;;;17.80;100.00
12991;BME280;6560;57.692;11.958;2023-01-15T06:00:53;97883.78;;;17.79;100.00
12991;BME280;6560;57.692;11.958;2023-01-15T06:03:24;97811.66;;;16.81;100.00
12991;BME280;6560;57.692;11.958;2023-01-15T06:05:53;97866.91;;;18.24;100.00
12991;BME280;6560;57.692;11.958;2023-01-15T06:08:20;97875.81;;;17.76;100.00
12991;BME280;6560;57.692;11.958;2023-01-15T06:10:46;97869.56;;;18.21;100.00
12991;BME280;6560;57.692;11.958;2023-01-15T06:13:13;97870.47;;;18.05;100.00
12991;BME280;6560;57.692;11.958;2023-01-15T06:15:38;97857.13;;;20.08;100.00
12991;BME280;6560;57.692;11.958;2023-01-15T06:18:04;97789.16;;;22.18;100.00
12991;BME280;6560;57.692;11.958;2023-01-15T06:20:30;97860.91;;;19.79;100.00
12991;BME280;6560;57.692;11.958;2023-01-15T06:22:55;97836.91;;;19.70;100.00
12991;BME280;6560;57.692;11.958;2023-01-15T06:25:20;97852.00;;;19.77;100.00
12991;BME280;6560;57.692;11.958;2023-01-15T06:27:46;97839.22;;;18.80;100.00
12991;BME280;6560;57.692;11.958;2023-01-15T06:30:13;97826.94;;;18.03;100.00
12991;BME280;6560;57.692;11.958;2023-01-15T06:32:39;97835.84;;;17.98;100.00
12991;BME280;6560;57.692;11.958;2023-01-15T06:35:05;97874.94;;;17.89;100.00
12991;BME280;6560;57.692;11.958;2023-01-15T06:37:30;97854.41;;;17.32;100.00
12991;BME280;6560;57.692;11.958;2023-01-15T06:39:56;97865.06;;;17.38;100.00
12991;BME280;6560;57.692;11.958;2023-01-15T06:42:21;97850.88;;;17.59;100.00
12991;BME280;6560;57.692;11.958;2023-01-15T06:45:05;97807.41;;;17.66;100.00
12991;BME280;6560;57.692;11.958;2023-01-15T06:47:49;97844.47;;;18.98;100.00
12991;BME280;6560;57.692;11.958;2023-01-15T06:50:15;97842.53;;;19.23;100.00
12991;BME280;6560;57.692;11.958;2023-01-15T06:52:41;97825.53;;;19.47;100.00
12991;BME280;6560;57.692;11.958;2023-01-15T06:55:06;97827.72;;;18.49;100.00
12991;BME280;6560;57.692;11.958;2023-01-15T06:57:32;97817.53;;;19.36;100.00
12991;BME280;6560;57.692;11.958;2023-01-15T06:59:57;97822.56;;;19.83;100.00
12991;BME280;6560;57.692;11.958;2023-01-15T07:02:23;97814.00;;;19.33;100.00
12991;BME280;6560;57.692;11.958;2023-01-15T07:04:49;97820.88;;;19.70;100.00
12991;BME280;6560;57.692;11.958;2023-01-15T07:07:16;97775.00;;;19.09;100.00
12991;BME280;6560;57.692;11.958;2023-01-15T07:09:43;97771.41;;;19.11;100.00
12991;BME280;6560;57.692;11.958;2023-01-15T07:12:08;97828.38;;;19.10;100.00
12991;BME280;6560;57.692;11.958;2023-01-15T07:14:34;97819.25;;;19.45;100.00
12991;BME280;6560;57.692;11.958;2023-01-15T07:17:01;97813.06;;;19.47;100.00
12991;BME280;6560;57.692;11.958;2023-01-15T07:19:27;97842.69;;;18.97;100.00
12991;BME280;6560;57.692;11.958;2023-01-15T07:21:52;97817.47;;;19.44;100.00
12991;BME280;6560;57.692;11.958;2023-01-15T07:24:18;97819.09;;;19.71;100.00
12991;BME280;6560;57.692;11.958;2023-01-15T07:26:44;97804.16;;;19.39;100.00
12991;BME280;6560;57.692;11.958;2023-01-15T07:29:10;97798.22;;;20.11;100.00
12991;BME280;6560;57.692;11.958;2023-01-15T07:31:36;97844.38;;;19.15;100.00
12991;BME280;6560;57.692;11.958;2023-01-15T07:34:02;97847.75;;;19.55;100.00
12991;BME280;6560;57.692;11.958;2023-01-15T07:36:28;97839.63;;;19.67;100.00
12991;BME280;6560;57.692;11.958;2023-01-15T07:38:54;97845.81;;;19.75;100.00
12991;BME280;6560;57.692;11.958;2023-01-15T07:41:19;97838.78;;;19.62;100.00
12991;BME280;6560;57.692;11.958;2023-01-15T07:44:15;97775.97;;;18.94;100.00
12991;BME280;6560;57.692;11.958;2023-01-15T08:31:49;97675.13;;;17.00;100.00
12991;BME280;6560;57.692;11.958;2023-01-15T08:34:26;97654.72;;;17.03;100.00
12991;BME280;6560;57.692;11.958;2023-01-15T08:36:55;97772.50;;;16.45;100.00
12991;BME280;6560;57.692;11.958;2023-01-15T08:42:13;97693.69;;;17.79;100.00
12991;BME280;6560;57.692;11.958;2023-01-15T08:59:20;97764.75;;;17.98;100.00
12991;BME280;6560;57.692;11.958;2023-01-15T09:08:15;97637.34;;;14.38;100.00
12991;BME280;6560;57.692;11.958;2023-01-15T09:26:41;97848.28;;;17.64;100.00
12991;BME280;6560;57.692;11.958;2023-01-15T09:35:34;97731.75;;;16.50;100.00
12991;BME280;6560;57.692;11.958;2023-01-15T09:38:00;97817.09;;;17.06;100.00
12991;BME280;6560;57.692;11.958;2023-01-15T09:41:16;97842.03;;;17.92;100.00
12991;BME280;6560;57.692;11.958;2023-01-15T09:47:40;97834.06;;;17.84;100.00
12991;BME280;6560;57.692;11.958;2023-01-15T10:00:32;97667.13;;;17.15;100.00
12991;BME280;6560;57.692;11.958;2023-01-15T10:19:59;97603.25;;;16.83;100.00
12991;BME280;6560;57.692;11.958;2023-01-15T10:25:46;97600.50;;;17.61;100.00
12991;BME280;6560;57.692;11.958;2023-01-15T10:31:21;97807.25;;;18.62;100.00
12991;BME280;6560;57.692;11.958;2023-01-15T10:36:49;97815.28;;;18.56;100.00
12991;BME280;6560;57.692;11.958;2023-01-15T10:39:19;97831.31;;;18.35;100.00
12991;BME280;6560;57.692;11.958;2023-01-15T10:42:15;97832.19;;;18.56;100.00
12991;BME280;6560;57.692;11.958;2023-01-15T10:47:22;97711.41;;;18.01;100.00
12991;BME280;6560;57.692;11.958;2023-01-15T10:49:50;97775.41;;;17.40;100.00
12991;BME280;6560;57.692;11.958;2023-01-15T10:52:27;97817.97;;;18.57;100.00
12991;BME280;6560;57.692;11.958;2023-01-15T10:55:23;97782.00;;;19.27;100.00
12991;BME280;6560;57.692;11.958;2023-01-15T11:00:31;97757.19;;;19.08;100.00
12991;BME280;6560;57.692;11.958;2023-01-15T11:03:02;97800.91;;;20.12;100.00
12991;BME280;6560;57.692;11.958;2023-01-15T11:05:36;97776.50;;;19.45;100.00
12991;BME280;6560;57.692;11.958;2023-01-15T11:08:06;97758.31;;;18.67;100.00
12991;BME280;6560;57.692;11.958;2023-01-15T11:10:33;97796.28;;;19.17;100.00
12991;BME280;6560;57.692;11.958;2023-01-15T11:13:08;97790.75;;;19.44;100.00
12991;BME280;6560;57.692;11.958;2023-01-15T11:15:53;97769.56;;;19.17;100.00
12991;BME280;6560;57.692;11.958;2023-01-15T11:18:42;97659.69;;;18.42;100.00
12991;BME280;6560;57.692;11.958;2023-01-15T11:21:28;97715.09;;;19.46;100.00
12991;BME280;6560;57.692;11.958;2023-01-15T11:23:56;97572.50;;;18.56;96.88
12991;BME280;6560;57.692;11.958;2023-01-15T11:26:28;97793.00;;;18.70;98.42
12991;BME280;6560;57.692;11.958;2023-01-15T11:28:56;97782.03;;;19.22;100.00
12991;BME280;6560;57.692;11.958;2023-01-15T11:31:35;97746.75;;;18.65;96.89
12991;BME280;6560;57.692;11.958;2023-01-15T11:34:18;97662.34;;;18.49;98.70
12991;BME280;6560;57.692;11.958;2023-01-15T11:36:45;97778.44;;;19.28;100.00
12991;BME280;6560;57.692;11.958;2023-01-15T11:39:25;97614.75;;;19.12;95.42
12991;BME280;6560;57.692;11.958;2023-01-15T11:42:04;97373.09;;;17.74;93.59
12991;BME280;6560;57.692;11.958;2023-01-15T11:45:20;97769.38;;;19.52;96.57
12991;BME280;6560;57.692;11.958;2023-01-15T11:48:20;97563.19;;;17.67;100.00
12991;BME280;6560;57.692;11.958;2023-01-15T11:51:13;97746.91;;;18.24;100.00
12991;BME280;6560;57.692;11.958;2023-01-15T11:53:42;97751.41;;;18.10;100.00
12991;BME280;6560;57.692;11.958;2023-01-15T11:56:14;97738.94;;;18.15;100.00
12991;BME280;6560;57.692;11.958;2023-01-15T11:58:51;97580.19;;;17.08;100.00
12991;BME280;6560;57.692;11.958;2023-01-15T12:01:46;97700.38;;;18.85;100.00
12991;BME280;6560;57.692;11.958;2023-01-15T12:04:45;97766.53;;;17.19;100.00
12991;BME280;6560;57.692;11.958;2023-01-15T12:07:14;97744.34;;;17.76;100.00
12991;BME280;6560;57.692;11.958;2023-01-15T12:10:15;97349.81;;;16.04;100.00
12991;BME280;6560;57.692;11.958;2023-01-15T12:21:42;97660.63;;;18.36;100.00
12991;BME280;6560;57.692;11.958;2023-01-15T12:24:31;97664.34;;;17.96;100.00
12991;BME280;6560;57.692;11.958;2023-01-15T12:30:20;97661.78;;;17.36;100.00
12991;BME280;6560;57.692;11.958;2023-01-15T12:33:14;97637.75;;;17.83;99.95
12991;BME280;6560;57.692;11.958;2023-01-15T12:35:43;97650.81;;;18.43;100.00
12991;BME280;6560;57.692;11.958;2023-01-15T12:38:17;97635.94;;;17.98;100.00
12991;BME280;6560;57.692;11.958;2023-01-15T12:40:53;97519.41;;;18.15;100.00
12991;BME280;6560;57.692;11.958;2023-01-15T12:43:25;97653.81;;;17.36;100.00
12991;BME280;6560;57.692;11.958;2023-01-15T12:46:20;97547.25;;;17.47;100.00
12991;BME280;6560;57.692;11.958;2023-01-15T12:51:52;97475.25;;;17.76;91.45
12991;BME280;6560;57.692;11.958;2023-01-15T12:54:30;97601.84;;;18.56;98.02
12991;BME280;6560;57.692;11.958;2023-01-15T12:57:02;97494.00;;;17.44;94.23
12991;BME280;6560;57.692;11.958;2023-01-15T13:05:38;97577.09;;;19.39;93.56
12991;BME280;6560;57.692;11.958;2023-01-15T13:08:11;97568.94;;;18.52;89.13
12991;BME280;6560;57.692;11.958;2023-01-15T13:10:41;97517.22;;;16.87;100.00
12991;BME280;6560;57.692;11.958;2023-01-15T13:13:14;97574.13;;;18.74;96.12
12991;BME280;6560;57.692;11.958;2023-01-15T13:16:09;97352.06;;;17.28;94.65
12991;BME280;6560;57.692;11.958;2023-01-15T13:19:05;97548.06;;;19.04;90.11
12991;BME280;6560;57.692;11.958;2023-01-15T13:21:35;97552.75;;;18.78;92.53
12991;BME280;6560;57.692;11.958;2023-01-15T13:24:28;97545.09;;;18.25;93.27
12991;BME280;6560;57.692;11.958;2023-01-15T13:37:53;97484.47;;;19.41;94.89
12991;BME280;6560;57.692;11.958;2023-01-15T13:42:49;97455.25;;;18.36;93.36
12991;BME280;6560;57.692;11.958;2023-01-15T13:45:22;97419.19;;;17.89;95.42
12991;BME280;6560;57.692;11.958;2023-01-15T13:47:55;97397.19;;;19.42;93.68
12991;BME280;6560;57.692;11.958;2023-01-15T13:50:33;97491.28;;;17.54;100.00
12991;BME280;6560;57.692;11.958;2023-01-15T13:53:29;97470.19;;;17.12;100.00
12991;BME280;6560;57.692;11.958;2023-01-15T13:56:09;97489.47;;;17.70;100.00
12991;BME280;6560;57.692;11.958;2023-01-15T13:59:00;97450.94;;;18.23;98.15
12991;BME280;6560;57.692;11.958;2023-01-15T14:06:42;97432.03;;;17.08;100.00
12991;BME280;6560;57.692;11.958;2023-01-15T14:22:50;97346.09;;;16.81;100.00
12991;BME280;6560;57.692;11.958;2023-01-15T14:35:46;97298.31;;;16.50;100.00
12991;BME280;6560;57.692;11.958;2023-01-15T14:38:17;97266.44;;;16.41;100.00
12991;BME280;6560;57.692;11.958;2023-01-15T14:40:59;97347.44;;;17.64;100.00
12991;BME280;6560;57.692;11.958;2023-01-15T14:43:27;97285.13;;;16.18;100.00
12991;BME280;6560;57.692;11.958;2023-01-15T14:45:54;97323.47;;;17.61;100.00
12991;BME280;6560;57.692;11.958;2023-01-15T14:48:35;97281.63;;;15.39;100.00
12991;BME280;6560;57.692;11.958;2023-01-15T14:51:14;97262.97;;;16.16;100.00
12991;BME280;6560;57.692;11.958;2023-01-15T14:53:42;97241.84;;;15.42;100.00
12991;BME280;6560;57.692;11.958;2023-01-15T14:56:17;97202.00;;;15.31;100.00
12991;BME280;6560;57.692;11.958;2023-01-15T14:59:02;97313.50;;;15.84;100.00
12991;BME280;6560;57.692;11.958;2023-01-15T15:01:43;97346.88;;;17.04;100.00
12991;BME280;6560;57.692;11.958;2023-01-15T15:04:29;97292.47;;;17.46;100.00
12991;BME280;6560;57.692;11.958;2023-01-15T15:13:19;97272.41;;;16.96;100.00
12991;BME280;6560;57.692;11.958;2023-01-15T15:16:12;97220.38;;;16.41;100.00
12991;BME280;6560;57.692;11.958;2023-01-15T15:18:53;97156.03;;;15.05;100.00
12991;BME280;6560;57.692;11.958;2023-01-15T15:21:46;96794.72;;;13.01;100.00
12991;BME280;6560;57.692;11.958;2023-01-15T15:24:20;96820.41;;;13.50;100.00
12991;BME280;6560;57.692;11.958;2023-01-15T15:26:50;96856.56;;;13.67;100.00
12991;BME280;6560;57.692;11.958;2023-01-15T15:29:21;96982.81;;;14.68;100.00
12991;BME280;6560;57.692;11.958;2023-01-15T15:31:56;97037.47;;;15.33;100.00
12991;BME280;6560;57.692;11.958;2023-01-15T15:34:27;97237.28;;;17.68;100.00
12991;BME280;6560;57.692;11.958;2023-01-15T15:37:03;97014.47;;;15.35;100.00
12991;BME280;6560;57.692;11.958;2023-01-15T15:42:43;96697.84;;;13.24;100.00
12991;BME280;6560;57.692;11.958;2023-01-15T15:45:32;97008.34;;;15.10;100.00
12991;BME280;6560;57.692;11.958;2023-01-15T15:48:30;97197.28;;;16.50;100.00
12991;BME280;6560;57.692;11.958;2023-01-15T15:57:03;97100.72;;;16.44;100.00
12991;BME280;6560;57.692;11.958;2023-01-15T15:59:33;97170.19;;;18.84;100.00
12991;BME280;6560;57.692;11.958;2023-01-15T16:02:30;97184.13;;;19.56;100.00
12991;BME280;6560;57.692;11.958;2023-01-15T16:05:02;96944.09;;;17.81;100.00
12991;BME280;6560;57.692;11.958;2023-01-15T16:07:30;96940.81;;;18.76;100.00
12991;BME280;6560;57.692;11.958;2023-01-15T16:10:13;97172.00;;;20.32;100.00
12991;BME280;6560;57.692;11.958;2023-01-15T16:12:48;96964.63;;;19.76;100.00
12991;BME280;6560;57.692;11.958;2023-01-15T16:15:19;96908.66;;;19.27;100.00
12991;BME280;6560;57.692;11.958;2023-01-15T16:17:50;96990.34;;;20.60;100.00
12991;BME280;6560;57.692;11.958;2023-01-15T16:20:18;97034.25;;;21.87;100.00
12991;BME280;6560;57.692;11.958;2023-01-15T16:22:55;97119.56;;;22.65;100.00
12991;BME280;6560;57.692;11.958;2023-01-15T16:27:51;97037.84;;;21.23;100.00
12991;BME280;6560;57.692;11.958;2023-01-15T16:30:17;97108.50;;;21.53;100.00
12991;BME280;6560;57.692;11.958;2023-01-15T16:32:44;97019.00;;;21.58;100.00
12991;BME280;6560;57.692;11.958;2023-01-15T16:35:16;97149.69;;;22.46;100.00
12991;BME280;6560;57.692;11.958;2023-01-15T16:54:47;96700.53;;;19.58;100.00
12991;BME280;6560;57.692;11.958;2023-01-15T16:57:31;96994.94;;;20.89;100.00
12991;BME280;6560;57.692;11.958;2023-01-15T17:00:01;96914.75;;;20.50;100.00
12991;BME280;6560;57.692;11.958;2023-01-15T17:02:33;96963.53;;;20.61;100.00
12991;BME280;6560;57.692;11.958;2023-01-15T17:04:59;97105.59;;;22.25;100.00
12991;BME280;6560;57.692;11.958;2023-01-15T17:09:56;97133.81;;;22.67;98.42
12991;BME280;6560;57.692;11.958;2023-01-15T17:12:30;97138.84;;;23.08;97.98
12991;BME280;6560;57.692;11.958;2023-01-15T17:17:45;97058.56;;;23.51;94.79
12991;BME280;6560;57.692;11.958;2023-01-15T17:23:29;97129.91;;;23.61;90.51
12991;BME280;6560;57.692;11.958;2023-01-15T17:25:58;96967.84;;;22.52;90.72
12991;BME280;6560;57.692;11.958;2023-01-15T17:28:23;97043.19;;;23.03;92.66
12991;BME280;6560;57.692;11.958;2023-01-15T17:30:52;97013.75;;;22.73;91.54
12991;BME280;6560;57.692;11.958;2023-01-15T17:33:18;96992.91;;;22.25;91.90
12991;BME280;6560;57.692;11.958;2023-01-15T17:35:45;97076.28;;;23.57;90.45
12991;BME280;6560;57.692;11.958;2023-01-15T17:38:14;97082.97;;;22.91;90.84
12991;BME280;6560;57.692;11.958;2023-01-15T17:40:40;96971.56;;;22.48;91.80
12991;BME280;6560;57.692;11.958;2023-01-15T17:43:12;97097.84;;;23.02;91.90
12991;BME280;6560;57.692;11.958;2023-01-15T17:45:45;97014.22;;;22.00;93.49
12991;BME280;6560;57.692;11.958;2023-01-15T17:48:14;97041.56;;;22.42;94.81
12991;BME280;6560;57.692;11.958;2023-01-15T17:50:42;97098.25;;;23.17;95.02